createdAt,value
2022-08-10T00:00:00.817Z,100287.97
2022-08-10T00:01:03.651Z,100295.21
2022-08-10T00:02:06.149Z,100298.88
2022-08-10T00:03:08.718Z,100292.64
2022-08-10T00:04:11.170Z,100290.79
2022-08-10T00:05:15.475Z,100296.19
2022-08-10T00:06:19.691Z,100296.31
2022-08-10T00:07:23.942Z,100293.62
2022-08-10T00:08:26.256Z,100286.38
2022-08-10T00:09:29.935Z,100299.14
2022-08-10T00:10:33.267Z,100290.20
2022-08-10T00:11:35.530Z,100291.17
2022-08-10T00:12:54.466Z,100281.23
2022-08-10T00:13:43.158Z,100288.35
2022-08-10T00:14:45.557Z,100288.35
2022-08-10T00:15:54.176Z,100286.50
2022-08-10T00:16:52.631Z,100299.02
2022-08-10T00:17:54.989Z,100296.19
2022-08-10T00:18:57.699Z,100297.91
2022-08-10T00:20:03.223Z,100296.94
2022-08-10T00:21:05.194Z,100298.63
2022-08-10T00:22:07.762Z,100293.36
2022-08-10T00:23:10.289Z,100291.41
2022-08-10T00:24:14.173Z,100296.80
2022-08-10T00:25:16.605Z,100292.39
2022-08-10T00:26:20.784Z,100291.54
2022-08-10T00:28:02.326Z,100285.27
2022-08-10T00:28:30.497Z,100281.73
2022-08-10T00:29:34.709Z,100284.42
2022-08-10T00:30:38.432Z,100280.85
2022-08-10T00:31:56.036Z,100280.01
2022-08-10T00:32:46.539Z,100273.77
2022-08-10T00:33:50.655Z,100280.85
2022-08-10T00:34:53.085Z,100280.01
2022-08-10T00:35:56.554Z,100279.16
2022-08-10T00:37:00.343Z,100282.70
2022-08-10T00:38:03.024Z,100279.16
2022-08-10T00:39:05.533Z,100278.28
2022-08-10T00:40:10.565Z,100281.86
2022-08-10T00:41:12.829Z,100277.31
2022-08-10T00:42:15.422Z,100283.55
2022-08-10T00:43:23.487Z,100285.41
2022-08-10T00:44:22.508Z,100281.73
2022-08-10T00:45:26.314Z,100290.53
2022-08-10T00:46:30.415Z,100285.14
2022-08-10T00:47:37.012Z,100286.86
2022-08-10T00:48:37.260Z,100287.70
2022-08-10T00:49:40.137Z,100287.70
2022-08-10T00:50:42.697Z,100289.43
2022-08-10T00:51:48.572Z,100285.76
2022-08-10T00:52:50.114Z,100279.52
2022-08-10T00:53:52.646Z,100282.09
2022-08-10T00:54:55.315Z,100282.09
2022-08-10T00:57:12.914Z,100283.91
2022-08-10T00:57:15.649Z,100277.67
2022-08-10T00:58:08.049Z,100283.06
2022-08-10T00:59:10.340Z,100278.77
2022-08-10T01:00:14.284Z,100282.31
2022-08-10T01:02:09.664Z,100280.63
2022-08-10T01:02:22.984Z,100277.92
2022-08-10T01:04:39.528Z,100275.36
2022-08-10T01:04:58.063Z,100272.66
2022-08-10T01:05:35.996Z,100277.18
2022-08-10T01:07:19.601Z,100270.06
2022-08-10T01:10:20.510Z,100265.64
2022-08-10T01:12:37.811Z,100272.77
2022-08-10T01:12:46.246Z,100279.03
2022-08-10T01:13:52.411Z,100279.16
2022-08-10T01:15:15.251Z,100273.77
2022-08-10T01:16:22.398Z,100280.85
2022-08-10T01:18:52.230Z,100272.89
2022-08-10T01:20:10.574Z,100274.61
2022-08-10T01:21:37.716Z,100279.16
2022-08-10T01:23:03.324Z,100273.77
2022-08-10T01:24:30.667Z,100277.44
2022-08-10T01:26:12.230Z,100274.74
2022-08-10T01:27:17.065Z,100274.03
2022-08-10T01:28:41.079Z,100274.03
2022-08-10T01:29:58.899Z,100274.13
2022-08-10T01:31:01.940Z,100283.22
2022-08-10T01:32:05.275Z,100271.69
2022-08-10T01:33:11.885Z,100278.93
2022-08-10T01:34:18.200Z,100280.66
2022-08-10T01:35:34.017Z,100274.38
2022-08-10T01:36:49.305Z,100273.53
2022-08-10T01:38:11.206Z,100275.26
2022-08-10T01:39:17.242Z,100271.69
2022-08-10T01:40:22.176Z,100278.93
2022-08-10T01:41:27.877Z,100270.84
2022-08-10T01:42:33.329Z,100278.93
2022-08-10T01:44:56.194Z,100279.03
2022-08-10T01:45:59.379Z,100281.72
2022-08-10T01:47:08.946Z,100277.30
2022-08-10T01:48:16.512Z,100279.88
2022-08-10T01:49:17.651Z,100282.56
2022-08-10T01:51:56.039Z,100277.80
2022-08-10T01:54:17.556Z,100274.00
2022-08-10T01:55:21.560Z,100270.20
2022-08-10T01:56:26.166Z,100273.77
2022-08-10T01:57:29.666Z,100270.06
2022-08-10T01:58:32.230Z,100266.52
2022-08-10T01:59:35.662Z,100273.64
2022-08-10T02:00:39.411Z,100268.25
2022-08-10T02:01:50.576Z,100271.78
2022-08-10T02:02:54.308Z,100269.97
2022-08-10T02:04:03.850Z,100270.94
2022-08-10T02:05:04.967Z,100264.67
2022-08-10T02:06:07.602Z,100269.09
2022-08-10T02:07:19.596Z,100266.39
2022-08-10T02:08:23.227Z,100271.78
2022-08-10T02:09:31.376Z,100269.97
2022-08-10T02:10:34.877Z,100270.68
2022-08-10T02:12:05.947Z,100267.14
2022-08-10T02:12:41.848Z,100266.13
2022-08-10T02:13:45.159Z,100264.31
2022-08-10T02:14:56.239Z,100264.31
2022-08-10T02:16:01.290Z,100262.59
2022-08-10T02:17:05.947Z,100266.27
2022-08-10T02:18:08.354Z,100268.96
2022-08-10T02:19:11.944Z,100268.25
2022-08-10T02:20:17.779Z,100272.89
2022-08-10T02:21:20.712Z,100272.89
2022-08-10T02:22:38.009Z,100276.47
2022-08-10T02:23:31.584Z,100282.70
2022-08-10T02:24:34.032Z,100283.55
2022-08-10T02:25:42.676Z,100273.77
2022-08-10T02:26:44.029Z,100279.88
2022-08-10T02:27:46.766Z,100274.61
2022-08-10T02:28:49.123Z,100279.03
2022-08-10T02:29:51.783Z,100276.34
2022-08-10T02:30:55.078Z,100276.34
2022-08-10T02:31:59.282Z,100280.75
2022-08-10T02:33:02.466Z,100271.78
2022-08-10T02:34:07.082Z,100274.61
2022-08-10T02:35:21.998Z,100273.90
2022-08-10T02:36:17.847Z,100264.09
2022-08-10T02:37:22.711Z,100273.15
2022-08-10T02:38:58.125Z,100267.76
2022-08-10T02:39:33.429Z,100280.39
2022-08-10T02:42:18.050Z,100267.76
2022-08-10T02:45:15.846Z,100271.33
2022-08-10T02:45:22.198Z,100274.84
2022-08-10T02:45:43.606Z,100266.66
2022-08-10T02:46:48.138Z,100271.91
2022-08-10T02:48:15.268Z,100272.05
2022-08-10T02:49:21.092Z,100272.05
2022-08-10T02:50:37.623Z,100268.63
2022-08-10T02:52:07.051Z,100269.61
2022-08-10T02:53:56.688Z,100273.41
2022-08-10T02:54:23.796Z,100270.71
2022-08-10T02:55:41.326Z,100272.62
2022-08-10T02:56:47.677Z,100268.24
2022-08-10T02:58:15.298Z,100266.52
2022-08-10T02:58:59.297Z,100264.80
2022-08-10T03:00:04.014Z,100268.47
2022-08-10T03:01:09.625Z,100273.86
2022-08-10T03:02:14.443Z,100271.06
2022-08-10T03:03:20.767Z,100280.00
2022-08-10T03:04:55.995Z,100277.30
2022-08-10T03:05:44.182Z,100281.84
2022-08-10T03:06:54.976Z,100280.00
2022-08-10T03:08:01.781Z,100280.00
2022-08-10T03:09:06.502Z,100288.22
2022-08-10T03:10:13.273Z,100284.55
2022-08-10T03:12:35.660Z,100292.63
2022-08-10T03:12:38.383Z,100298.03
2022-08-10T03:13:30.586Z,100298.03
2022-08-10T03:14:34.602Z,100304.27
2022-08-10T03:15:37.556Z,100304.14
2022-08-10T03:16:40.129Z,100284.42
2022-08-10T03:17:57.544Z,100280.00
2022-08-10T03:18:48.645Z,100281.84
2022-08-10T03:20:33.825Z,100280.97
2022-08-10T03:20:57.642Z,100273.02
2022-08-10T03:22:00.024Z,100277.56
2022-08-10T03:23:04.517Z,100274.99
2022-08-10T03:24:18.244Z,100278.66
2022-08-10T03:25:12.287Z,100286.00
2022-08-10T03:26:20.441Z,100289.70
2022-08-10T03:27:21.610Z,100286.00
2022-08-10T03:28:28.654Z,100284.05
2022-08-10T03:29:30.939Z,100280.61
2022-08-10T03:30:38.777Z,100281.48
2022-08-10T03:31:40.990Z,100283.20
2022-08-10T03:32:43.663Z,100286.75
2022-08-10T03:33:45.942Z,100286.75
2022-08-10T03:34:49.176Z,100284.05
2022-08-10T03:36:41.986Z,100284.18
2022-08-10T03:36:59.419Z,100289.83
2022-08-10T03:38:02.081Z,100282.84
2022-08-10T03:39:04.535Z,100262.02
2022-08-10T03:40:08.172Z,100262.02
2022-08-10T03:41:16.231Z,100282.84
2022-08-10T03:42:16.458Z,100284.53
2022-08-10T03:43:20.556Z,100285.28
2022-08-10T03:44:25.583Z,100278.04
2022-08-10T03:45:27.993Z,100276.45
2022-08-10T03:46:37.566Z,100289.08
2022-08-10T03:47:39.938Z,100291.90
2022-08-10T03:48:48.523Z,100291.77
2022-08-10T03:49:47.110Z,100292.62
2022-08-10T03:50:52.810Z,100289.83
2022-08-10T03:51:57.363Z,100298.63
2022-08-10T03:53:01.302Z,100294.09
2022-08-10T03:54:07.374Z,100287.72
2022-08-10T03:55:10.596Z,100285.03
2022-08-10T03:56:28.386Z,100295.81
2022-08-10T03:57:20.794Z,100287.72
2022-08-10T03:58:23.138Z,100292.98
2022-08-10T03:59:25.378Z,100297.41
2022-08-10T04:00:31.007Z,100296.56
2022-08-10T04:02:43.417Z,100307.34
2022-08-10T04:02:52.005Z,100308.31
2022-08-10T04:03:43.448Z,100312.86
2022-08-10T04:04:45.721Z,100308.31
2022-08-10T04:06:01.768Z,100310.04
2022-08-10T04:07:06.620Z,100305.48
2022-08-10T04:08:09.659Z,100298.25
2022-08-10T04:09:12.778Z,100290.03
2022-08-10T04:10:16.410Z,100289.06
2022-08-10T04:11:19.199Z,100294.33
2022-08-10T04:12:21.568Z,100294.20
2022-08-10T04:13:24.062Z,100296.83
2022-08-10T04:14:38.075Z,100300.38
2022-08-10T04:15:31.578Z,100291.44
2022-08-10T04:16:34.319Z,100294.84
2022-08-10T04:18:00.162Z,100298.52
2022-08-10T04:18:41.068Z,100298.52
2022-08-10T04:19:47.601Z,100296.70
2022-08-10T04:20:52.617Z,100301.09
2022-08-10T04:21:58.700Z,100300.99
2022-08-10T04:23:04.039Z,100299.27
2022-08-10T04:24:09.465Z,100293.12
2022-08-10T04:25:15.312Z,100299.39
2022-08-10T04:26:18.936Z,100288.73
2022-08-10T04:27:22.419Z,100294.20
2022-08-10T04:28:25.253Z,100289.94
2022-08-10T04:29:27.957Z,100280.84
2022-08-10T04:30:32.028Z,100280.84
2022-08-10T04:31:34.394Z,100279.03
2022-08-10T04:32:37.131Z,100273.63
2022-08-10T04:33:41.858Z,100277.17
2022-08-10T04:34:44.212Z,100272.62
2022-08-10T04:35:46.438Z,100269.87
2022-08-10T04:36:49.405Z,100274.25
2022-08-10T04:37:52.805Z,100276.95
2022-08-10T04:38:55.071Z,100268.02
2022-08-10T04:39:57.492Z,100273.41
2022-08-10T04:41:00.077Z,100271.69
2022-08-10T04:42:02.871Z,100276.11
2022-08-10T04:43:12.499Z,100271.69
2022-08-10T04:44:11.028Z,100275.26
2022-08-10T04:45:15.033Z,100288.73
2022-08-10T04:46:56.352Z,100285.04
2022-08-10T04:47:51.217Z,100288.73
2022-08-10T04:48:42.781Z,100285.04
2022-08-10T04:49:54.243Z,100292.16
2022-08-10T04:50:36.997Z,100297.41
2022-08-10T04:51:42.003Z,100296.57
2022-08-10T04:52:45.078Z,100297.41
2022-08-10T04:54:05.579Z,100298.30
2022-08-10T04:54:55.074Z,100303.56
2022-08-10T04:55:58.119Z,100300.99
2022-08-10T04:57:01.599Z,100296.57
2022-08-10T04:58:05.208Z,100299.27
2022-08-10T04:59:08.781Z,100294.84
2022-08-10T05:00:18.792Z,100300.24
2022-08-10T05:01:16.811Z,100298.52
2022-08-10T05:02:29.717Z,100309.17
2022-08-10T05:03:23.962Z,100308.33
2022-08-10T05:04:37.153Z,100298.65
2022-08-10T05:05:31.080Z,100300.59
2022-08-10T05:06:33.653Z,100302.41
2022-08-10T05:07:51.455Z,100302.54
2022-08-10T05:08:40.080Z,100306.11
2022-08-10T05:10:03.045Z,100309.52
2022-08-10T05:10:47.149Z,100302.41
2022-08-10T05:11:49.636Z,100306.83
2022-08-10T05:12:51.806Z,100301.44
2022-08-10T05:13:54.969Z,100301.44
2022-08-10T05:14:58.651Z,100297.80
2022-08-10T05:16:02.303Z,100294.98
2022-08-10T05:17:04.803Z,100297.55
2022-08-10T05:18:09.486Z,100294.72
2022-08-10T05:19:12.297Z,100292.02
2022-08-10T05:20:16.237Z,100294.72
2022-08-10T05:22:02.978Z,100299.27
2022-08-10T05:22:25.447Z,100293.75
2022-08-10T05:23:27.929Z,100291.05
2022-08-10T05:24:30.922Z,100295.47
2022-08-10T05:25:37.373Z,100296.44
2022-08-10T05:26:55.185Z,100295.47
2022-08-10T05:27:44.504Z,100303.56
2022-08-10T05:28:47.580Z,100303.43
2022-08-10T05:30:02.528Z,100301.58
2022-08-10T05:30:55.381Z,100297.03
2022-08-10T05:31:57.925Z,100294.34
2022-08-10T05:33:03.777Z,100296.19
2022-08-10T05:34:04.266Z,100295.34
2022-08-10T05:35:09.943Z,100305.02
2022-08-10T05:36:12.921Z,100305.02
2022-08-10T05:38:12.503Z,100296.94
2022-08-10T05:38:20.619Z,100302.33
2022-08-10T05:39:25.243Z,100299.62
2022-08-10T05:40:29.938Z,100296.80
2022-08-10T05:41:33.441Z,100297.78
2022-08-10T05:42:35.891Z,100296.80
2022-08-10T05:43:38.367Z,100287.25
2022-08-10T05:44:40.634Z,100287.25
2022-08-10T05:46:19.144Z,100296.80
2022-08-10T05:47:12.777Z,100291.41
2022-08-10T05:48:54.601Z,100293.10
2022-08-10T05:49:20.707Z,100287.70
2022-08-10T05:50:26.299Z,100293.10
2022-08-10T05:51:29.102Z,100292.13
2022-08-10T05:52:31.868Z,100295.80
2022-08-10T05:54:01.746Z,100294.95
2022-08-10T05:54:38.648Z,100303.05
2022-08-10T05:55:41.026Z,100303.05
2022-08-10T05:56:55.249Z,100304.02
2022-08-10T05:57:48.897Z,100302.20
2022-08-10T05:58:51.295Z,100301.19
2022-08-10T06:00:11.302Z,100308.70
2022-08-10T06:01:06.077Z,100302.42
2022-08-10T06:02:30.934Z,100310.52
2022-08-10T06:03:13.109Z,100302.42
2022-08-10T06:04:21.508Z,100309.67
2022-08-10T06:05:25.531Z,100300.73
2022-08-10T06:06:28.930Z,100298.88
2022-08-10T06:07:31.566Z,100299.23
2022-08-10T06:08:35.448Z,100301.59
2022-08-10T06:09:38.441Z,100300.34
2022-08-10T06:12:16.467Z,100305.05
2022-08-10T06:12:27.366Z,100307.52
2022-08-10T06:12:55.614Z,100309.95
2022-08-10T06:14:13.264Z,100310.16
2022-08-10T06:15:10.029Z,100313.34
2022-08-10T06:16:11.671Z,100318.17
2022-08-10T06:17:14.939Z,100317.18
2022-08-10T06:18:17.242Z,100326.41
2022-08-10T06:19:20.295Z,100328.42
2022-08-10T06:20:23.666Z,100321.98
2022-08-10T06:21:28.736Z,100332.32
2022-08-10T06:22:32.445Z,100324.83
2022-08-10T06:23:35.839Z,100334.20
2022-08-10T06:24:51.162Z,100330.02
2022-08-10T06:26:09.588Z,100327.64
2022-08-10T06:26:48.105Z,100332.36
2022-08-10T06:27:51.564Z,100333.55
2022-08-10T06:30:19.857Z,100332.81
2022-08-10T06:31:14.623Z,100333.32
2022-08-10T06:32:16.987Z,100329.45
2022-08-10T06:33:21.913Z,100332.70
2022-08-10T06:35:39.123Z,100315.45
2022-08-10T06:36:44.046Z,100317.95
2022-08-10T06:37:51.477Z,100319.69
2022-08-10T06:38:51.850Z,100319.69
2022-08-10T06:39:54.485Z,100317.73
2022-08-10T06:40:58.157Z,100312.23
2022-08-10T06:42:16.090Z,100312.13
2022-08-10T06:43:18.973Z,100305.05
2022-08-10T06:44:24.410Z,100309.31
2022-08-10T06:45:30.709Z,100310.92
2022-08-10T06:46:37.321Z,100312.00
2022-08-10T06:48:08.638Z,100314.70
2022-08-10T06:49:11.152Z,100314.80
2022-08-10T06:50:59.125Z,100320.53
2022-08-10T06:51:42.314Z,100318.19
2022-08-10T06:52:44.885Z,100328.41
2022-08-10T06:53:52.867Z,100329.33
2022-08-10T06:54:56.049Z,100332.36
2022-08-10T06:56:01.442Z,100329.59
2022-08-10T06:57:19.075Z,100321.20
2022-08-10T06:58:08.082Z,100328.10
2022-08-10T06:59:26.902Z,100322.19
2022-08-10T07:00:34.382Z,100316.27
2022-08-10T07:01:37.924Z,100319.41
2022-08-10T07:02:51.391Z,100319.81
2022-08-10T07:04:00.437Z,100320.03
2022-08-10T07:05:05.558Z,100319.30
2022-08-10T07:06:11.078Z,100317.79
2022-08-10T07:07:18.662Z,100318.97
2022-08-10T07:08:21.337Z,100324.59
2022-08-10T07:09:24.407Z,100316.77
2022-08-10T07:10:45.524Z,100320.30
2022-08-10T07:11:33.637Z,100323.09
2022-08-10T07:12:36.342Z,100322.02
2022-08-10T07:14:16.998Z,100321.17
2022-08-10T07:14:45.840Z,100325.88
2022-08-10T07:15:57.217Z,100320.73
2022-08-10T07:16:54.973Z,100325.14
2022-08-10T07:17:57.386Z,100324.19
2022-08-10T07:19:00.010Z,100326.88
2022-08-10T07:20:04.425Z,100324.08
2022-08-10T07:21:07.079Z,100325.88
2022-08-10T07:22:09.440Z,100328.56
2022-08-10T07:23:57.976Z,100331.25
2022-08-10T07:24:19.396Z,100336.63
2022-08-10T07:25:29.017Z,100326.95
2022-08-10T07:26:33.614Z,100332.42
2022-08-10T07:27:58.323Z,100332.75
2022-08-10T07:28:47.863Z,100330.50
2022-08-10T07:29:53.705Z,100335.94
2022-08-10T07:30:53.530Z,100328.98
2022-08-10T07:31:58.407Z,100327.16
2022-08-10T07:33:01.299Z,100335.20
2022-08-10T07:34:04.102Z,100327.26
2022-08-10T07:35:07.728Z,100331.67
2022-08-10T07:36:10.560Z,100331.56
2022-08-10T07:37:12.919Z,100327.26
2022-08-10T07:38:22.021Z,100331.00
2022-08-10T07:40:02.514Z,100331.44
2022-08-10T07:40:30.134Z,100329.81
2022-08-10T07:41:33.088Z,100330.09
2022-08-10T07:42:35.671Z,100327.63
2022-08-10T07:43:38.468Z,100329.46
2022-08-10T07:44:42.101Z,100327.84
2022-08-10T07:45:44.941Z,100322.69
2022-08-10T07:46:50.673Z,100321.80
2022-08-10T07:48:00.575Z,100316.34
2022-08-10T07:49:15.508Z,100317.33
2022-08-10T07:50:13.124Z,100321.06
2022-08-10T07:51:18.660Z,100313.97
2022-08-10T07:52:21.770Z,100313.66
2022-08-10T07:53:27.777Z,100308.00
2022-08-10T07:54:30.190Z,100304.16
2022-08-10T07:56:04.178Z,100309.97
2022-08-10T07:56:48.798Z,100306.75
2022-08-10T07:57:42.637Z,100302.67
2022-08-10T07:58:51.791Z,100310.33
2022-08-10T07:59:55.773Z,100311.72
2022-08-10T08:00:59.474Z,100302.28
2022-08-10T08:02:02.513Z,100298.45
2022-08-10T08:03:05.326Z,100296.42
2022-08-10T08:04:11.477Z,100304.26
2022-08-10T08:05:12.487Z,100309.41
2022-08-10T08:06:17.112Z,100311.75
2022-08-10T08:07:21.498Z,100314.98
2022-08-10T08:08:24.695Z,100311.02
2022-08-10T08:09:29.117Z,100311.55
2022-08-10T08:10:32.917Z,100310.38
2022-08-10T08:11:36.432Z,100313.57
2022-08-10T08:12:39.840Z,100313.15
2022-08-10T08:13:42.655Z,100307.33
2022-08-10T08:14:45.523Z,100311.20
2022-08-10T08:16:20.671Z,100306.22
2022-08-10T08:16:53.411Z,100304.21
2022-08-10T08:17:59.802Z,100301.41
2022-08-10T08:20:07.376Z,100312.81
2022-08-10T08:24:04.351Z,100308.28
2022-08-10T08:24:06.699Z,100308.28
2022-08-10T08:24:15.845Z,100306.36
2022-08-10T08:24:32.445Z,100312.58
2022-08-10T08:25:28.710Z,100317.95
2022-08-10T08:26:31.483Z,100321.49
2022-08-10T08:27:37.322Z,100315.38
2022-08-10T08:28:41.523Z,100316.34
2022-08-10T08:29:47.276Z,100311.94
2022-08-10T08:30:49.838Z,100312.05
2022-08-10T08:31:59.091Z,100320.11
2022-08-10T08:32:57.128Z,100314.00
2022-08-10T08:33:59.584Z,100309.59
2022-08-10T08:35:04.921Z,100322.15
2022-08-10T08:36:09.639Z,100314.97
2022-08-10T08:37:18.843Z,100318.38
2022-08-10T08:38:29.506Z,100321.84
2022-08-10T08:39:23.926Z,100315.50
2022-08-10T08:41:49.297Z,100320.19
2022-08-10T08:42:58.935Z,100318.19
2022-08-10T08:44:11.024Z,100316.34
2022-08-10T08:45:37.252Z,100316.34
2022-08-10T08:48:04.363Z,100316.46
2022-08-10T08:50:07.491Z,100312.27
2022-08-10T08:52:54.390Z,100316.47
2022-08-10T08:54:27.374Z,100319.91
2022-08-10T08:55:52.306Z,100316.27
2022-08-10T08:57:50.720Z,100320.98
2022-08-10T08:58:42.517Z,100312.61
2022-08-10T09:00:10.314Z,100316.81
2022-08-10T09:01:47.009Z,100309.17
2022-08-10T09:03:11.580Z,100306.48
2022-08-10T09:04:34.915Z,100304.68
2022-08-10T09:05:58.782Z,100307.25
2022-08-10T09:07:03.803Z,100300.05
2022-08-10T09:08:28.390Z,100298.23
2022-08-10T09:09:49.583Z,100310.56
2022-08-10T09:11:14.076Z,100311.33
2022-08-10T09:12:42.341Z,100313.69
2022-08-10T09:14:03.347Z,100307.12
2022-08-10T09:15:40.956Z,100315.95
2022-08-10T09:16:58.961Z,100310.69
2022-08-10T09:18:18.852Z,100323.02
2022-08-10T09:19:35.546Z,100317.64
2022-08-10T09:20:39.948Z,100322.28
2022-08-10T09:21:55.168Z,100321.44
2022-08-10T09:24:38.855Z,100319.69
2022-08-10T09:25:44.287Z,100312.38
2022-08-10T09:26:51.392Z,100310.69
2022-08-10T09:28:11.138Z,100311.65
2022-08-10T09:29:16.863Z,100310.80
2022-08-10T09:30:35.715Z,100308.97
2022-08-10T09:32:54.927Z,100305.31
2022-08-10T09:36:22.105Z,100305.09
2022-08-10T09:36:23.689Z,100304.21
2022-08-10T09:36:25.389Z,100303.25
2022-08-10T09:36:49.912Z,100314.00
2022-08-10T09:38:14.156Z,100311.09
2022-08-10T09:40:56.459Z,100307.44
2022-08-10T09:41:12.335Z,100310.66
2022-08-10T09:42:14.854Z,100296.04
2022-08-10T09:43:26.095Z,100298.27
2022-08-10T09:44:29.581Z,100300.56
2022-08-10T09:45:54.143Z,100297.77
2022-08-10T09:48:01.468Z,100297.87
2022-08-10T09:48:51.703Z,100299.57
2022-08-10T09:50:18.130Z,100301.61
2022-08-10T09:51:48.721Z,100300.11
2022-08-10T09:52:48.446Z,100301.64
2022-08-10T09:54:02.482Z,100299.92
2022-08-10T09:56:18.317Z,100304.52
2022-08-10T09:57:06.967Z,100302.83
2022-08-10T09:58:20.197Z,100299.92
2022-08-10T10:01:06.429Z,100293.47
2022-08-10T10:02:37.359Z,100295.19
2022-08-10T10:03:53.338Z,100303.36
2022-08-10T10:05:28.683Z,100299.06
2022-08-10T10:06:39.255Z,100302.83
2022-08-10T10:07:45.284Z,100306.39
2022-08-10T10:09:19.897Z,100302.63
2022-08-10T10:10:47.375Z,100309.59
2022-08-10T10:12:05.305Z,100302.63
2022-08-10T10:13:11.851Z,100300.56
2022-08-10T10:14:21.668Z,100295.96
2022-08-10T10:15:45.641Z,100296.80
2022-08-10T10:16:58.284Z,100297.66
2022-08-10T10:18:20.061Z,100292.28
2022-08-10T10:21:07.391Z,100288.40
2022-08-10T10:22:31.965Z,100286.14
2022-08-10T10:24:22.232Z,100288.52
2022-08-10T10:25:25.539Z,100289.13
2022-08-10T10:26:56.160Z,100290.77
2022-08-10T10:29:58.715Z,100288.92
2022-08-10T10:30:58.338Z,100289.81
2022-08-10T10:32:09.959Z,100291.82
2022-08-10T10:33:15.618Z,100286.56
2022-08-10T10:34:36.967Z,100285.71
2022-08-10T10:37:05.177Z,100286.55
2022-08-10T10:38:09.545Z,100289.02
2022-08-10T10:39:13.097Z,100286.25
2022-08-10T10:40:18.167Z,100283.45
2022-08-10T10:41:57.351Z,100286.12
2022-08-10T10:43:04.772Z,100291.42
2022-08-10T10:45:50.760Z,100277.17
2022-08-10T10:47:12.576Z,100278.95
2022-08-10T10:49:50.786Z,100273.29
2022-08-10T10:51:15.981Z,100273.98
2022-08-10T10:52:44.148Z,100281.17
2022-08-10T10:53:59.215Z,100275.68
2022-08-10T10:55:12.281Z,100283.55
2022-08-10T10:58:00.947Z,100279.84
2022-08-10T10:59:55.100Z,100285.04
2022-08-10T11:01:53.834Z,100278.73
2022-08-10T11:03:21.285Z,100285.77
2022-08-10T11:04:44.022Z,100278.47
2022-08-10T11:06:02.165Z,100280.05
2022-08-10T11:07:31.803Z,100283.38
2022-08-10T11:08:36.326Z,100279.84
2022-08-10T11:10:04.650Z,100279.61
2022-08-10T11:12:53.808Z,100266.94
2022-08-10T11:14:24.715Z,100273.76
2022-08-10T11:15:30.785Z,100269.02
2022-08-10T11:16:55.822Z,100266.09
2022-08-10T11:19:19.135Z,100255.27
2022-08-10T11:20:31.057Z,100259.88
2022-08-10T11:23:33.406Z,100251.45
2022-08-10T11:24:49.608Z,100257.73
2022-08-10T11:26:12.537Z,100259.47
2022-08-10T11:27:49.830Z,100258.50
2022-08-10T11:30:30.783Z,100263.81
2022-08-10T11:31:53.015Z,100260.08
2022-08-10T11:32:59.274Z,100258.38
2022-08-10T11:34:48.341Z,100255.81
2022-08-10T11:35:41.164Z,100264.84
2022-08-10T11:36:53.151Z,100255.93
2022-08-10T11:38:31.958Z,100264.96
2022-08-10T11:39:22.804Z,100256.25
2022-08-10T11:40:29.215Z,100267.01
2022-08-10T11:42:11.933Z,100265.20
2022-08-10T11:43:10.926Z,100264.08
2022-08-10T11:44:48.970Z,100263.77
2022-08-10T11:47:18.301Z,100243.53
2022-08-10T11:49:57.230Z,100248.67
2022-08-10T11:51:02.462Z,100251.20
2022-08-10T11:52:26.299Z,100248.40
2022-08-10T11:53:38.852Z,100252.93
2022-08-10T11:56:10.984Z,100253.33
2022-08-10T11:57:11.208Z,100257.79
2022-08-10T11:58:15.413Z,100254.25
2022-08-10T11:59:20.864Z,100246.06
2022-08-10T12:00:29.557Z,100246.91
2022-08-10T12:01:32.845Z,100255.86
2022-08-10T12:04:00.806Z,100252.37
2022-08-10T12:05:11.365Z,100254.89
2022-08-10T12:06:39.262Z,100253.90
2022-08-10T12:10:06.462Z,100254.66
2022-08-10T12:10:08.808Z,100253.73
2022-08-10T12:10:09.094Z,100254.30
2022-08-10T12:10:40.819Z,100253.73
2022-08-10T12:11:44.175Z,100252.55
2022-08-10T12:13:10.801Z,100250.59
2022-08-10T12:14:23.507Z,100247.78
2022-08-10T12:16:42.259Z,100244.54
2022-08-10T12:17:47.698Z,100239.98
2022-08-10T12:20:18.632Z,100244.30
2022-08-10T12:21:23.765Z,100242.42
2022-08-10T12:24:02.535Z,100240.13
2022-08-10T12:25:06.588Z,100241.83
2022-08-10T12:26:15.907Z,100242.67
2022-08-10T12:27:21.657Z,100249.89
2022-08-10T12:30:03.032Z,100249.80
2022-08-10T12:31:06.214Z,100252.59
2022-08-10T12:32:18.309Z,100255.28
2022-08-10T12:33:26.739Z,100253.31
2022-08-10T12:34:33.485Z,100246.84
2022-08-10T12:36:01.741Z,100246.84
2022-08-10T12:38:24.591Z,100243.33
2022-08-10T12:39:30.000Z,100247.93
2022-08-10T12:40:45.084Z,100248.30
2022-08-10T12:42:08.183Z,100247.66
2022-08-10T12:44:07.735Z,100247.78
2022-08-10T12:44:41.514Z,100251.23
2022-08-10T12:45:35.826Z,100246.94
2022-08-10T12:46:47.998Z,100247.05
2022-08-10T12:48:21.084Z,100249.92
2022-08-10T12:51:20.478Z,100243.42
2022-08-10T12:52:26.531Z,100236.90
2022-08-10T12:53:32.650Z,100238.62
2022-08-10T12:54:35.869Z,100236.77
2022-08-10T12:55:39.149Z,100245.61
2022-08-10T12:58:01.376Z,100239.86
2022-08-10T12:59:05.897Z,100237.89
2022-08-10T13:00:17.047Z,100239.83
2022-08-10T13:01:16.938Z,100236.41
2022-08-10T13:02:31.017Z,100236.59
2022-08-10T13:04:49.443Z,100228.95
2022-08-10T13:06:01.934Z,100238.80
2022-08-10T13:08:27.145Z,100229.82
2022-08-10T13:09:23.268Z,100228.03
2022-08-10T13:10:26.340Z,100229.97
2022-08-10T13:12:36.433Z,100231.57
2022-08-10T13:12:40.521Z,100231.45
2022-08-10T13:13:44.081Z,100243.09
2022-08-10T13:16:04.470Z,100240.59
2022-08-10T13:17:07.369Z,100242.97
2022-08-10T13:18:18.237Z,100247.23
2022-08-10T13:19:16.172Z,100236.30
2022-08-10T13:21:40.548Z,100237.80
2022-08-10T13:22:43.351Z,100235.93
2022-08-10T13:25:08.751Z,100234.86
2022-08-10T13:26:14.100Z,100242.67
2022-08-10T13:27:26.421Z,100242.55
2022-08-10T13:28:36.039Z,100242.42
2022-08-10T13:29:33.231Z,100228.97
2022-08-10T13:30:37.748Z,100236.83
2022-08-10T13:32:09.391Z,100240.87
2022-08-10T13:32:48.715Z,100240.87
2022-08-10T13:34:38.979Z,100235.38
2022-08-10T13:36:30.971Z,100238.67
2022-08-10T13:37:34.416Z,100246.02
2022-08-10T13:38:37.523Z,100237.95
2022-08-10T13:39:59.714Z,100239.67
2022-08-10T13:40:47.947Z,100233.66
2022-08-10T13:41:52.829Z,100241.84
2022-08-10T13:42:55.453Z,100232.17
2022-08-10T13:44:00.158Z,100230.57
2022-08-10T13:46:27.933Z,100225.97
2022-08-10T13:47:48.063Z,100221.41
2022-08-10T13:48:38.173Z,100218.84
2022-08-10T13:49:53.343Z,100221.66
2022-08-10T13:50:59.388Z,100224.22
2022-08-10T13:52:02.979Z,100225.95
2022-08-10T13:54:19.971Z,100224.48
2022-08-10T13:55:26.961Z,100224.67
2022-08-10T13:56:31.367Z,100224.08
2022-08-10T13:57:35.362Z,100222.72